createdAt,value
2022-08-20T00:02:15.621Z,89.63
2022-08-20T00:04:44.736Z,89.76
2022-08-20T00:07:14.595Z,89.96
2022-08-20T00:09:43.749Z,90.10
2022-08-20T00:12:16.750Z,90.38
2022-08-20T00:14:44.958Z,90.71
2022-08-20T00:17:13.362Z,90.98
2022-08-20T00:19:41.796Z,91.40
2022-08-20T00:22:10.288Z,92.07
2022-08-20T00:24:38.769Z,92.04
2022-08-20T00:27:07.240Z,92.37
2022-08-20T00:29:35.781Z,92.60
2022-08-20T00:32:04.595Z,92.62
2022-08-20T00:34:33.008Z,92.72
2022-08-20T00:37:01.509Z,92.75
2022-08-20T00:39:29.911Z,92.84
2022-08-20T00:41:58.295Z,93.02
2022-08-20T00:44:27.383Z,93.20
2022-08-20T00:46:55.881Z,93.65
2022-08-20T00:49:32.638Z,93.51
2022-08-20T00:52:08.216Z,93.35
2022-08-20T00:54:44.560Z,93.22
2022-08-20T00:57:51.230Z,93.40
2022-08-20T01:00:46.480Z,93.54
2022-08-20T01:03:17.837Z,93.58
2022-08-20T01:05:51.906Z,93.64
2022-08-20T01:08:24.343Z,93.59
2022-08-20T01:11:07.648Z,93.50
2022-08-20T01:13:38.917Z,93.99
2022-08-20T01:16:18.347Z,93.87
2022-08-20T01:18:48.808Z,93.58
2022-08-20T01:21:28.602Z,93.48
2022-08-20T01:24:21.272Z,93.31
2022-08-20T01:26:50.829Z,93.36
2022-08-20T01:29:29.607Z,93.56
2022-08-20T01:32:01.636Z,93.54
2022-08-20T01:34:30.481Z,93.45
2022-08-20T01:36:59.576Z,94.04
2022-08-20T01:39:33.017Z,93.91
2022-08-20T01:42:04.315Z,93.73
2022-08-20T01:44:33.797Z,93.56
2022-08-20T01:47:31.461Z,93.31
2022-08-20T01:50:18.105Z,93.63
2022-08-20T01:52:59.487Z,93.62
2022-08-20T01:55:28.347Z,93.74
2022-08-20T01:57:58.162Z,93.66
2022-08-20T02:00:26.786Z,93.75
2022-08-20T02:02:55.265Z,94.25
2022-08-20T02:05:24.786Z,94.58
2022-08-20T02:07:59.032Z,94.81
2022-08-20T02:10:28.252Z,94.94
2022-08-20T02:13:01.916Z,95.03
2022-08-20T02:15:34.430Z,95.10
2022-08-20T02:18:08.971Z,95.04
2022-08-20T02:20:38.171Z,95.12
2022-08-20T02:23:08.173Z,95.40
2022-08-20T02:25:40.447Z,95.95
2022-08-20T02:28:12.286Z,96.44
2022-08-20T02:30:44.815Z,96.16
2022-08-20T02:33:16.300Z,96.34
2022-08-20T02:35:48.167Z,96.42
2022-08-20T02:38:17.189Z,96.44
2022-08-20T02:40:46.972Z,96.29
2022-08-20T02:43:18.128Z,96.36
2022-08-20T02:45:46.647Z,96.51
2022-08-20T02:48:23.628Z,96.78
2022-08-20T02:50:56.897Z,96.84
2022-08-20T02:53:26.428Z,97.05
2022-08-20T02:55:56.217Z,97.15
2022-08-20T02:58:24.861Z,97.16
2022-08-20T03:00:53.998Z,97.39
2022-08-20T03:03:24.571Z,97.33
2022-08-20T03:05:55.876Z,97.47
2022-08-20T03:08:25.825Z,97.64
2022-08-20T03:10:54.884Z,97.83
2022-08-20T03:13:24.803Z,97.71
2022-08-20T03:15:59.034Z,97.97
2022-08-20T03:18:32.326Z,97.84
2022-08-20T03:21:01.363Z,97.78
2022-08-20T03:23:29.840Z,97.83
2022-08-20T03:25:58.795Z,97.82
2022-08-20T03:28:28.311Z,97.90
2022-08-20T03:30:58.150Z,98.22
2022-08-20T03:33:28.087Z,98.18
2022-08-20T03:35:56.574Z,98.16
2022-08-20T03:38:32.237Z,98.21
2022-08-20T03:41:03.478Z,98.28
2022-08-20T03:43:32.729Z,98.25
2022-08-20T03:46:02.473Z,98.37
2022-08-20T03:48:31.025Z,98.42
2022-08-20T03:51:01.149Z,98.58
2022-08-20T03:53:33.023Z,98.81
2022-08-20T03:56:06.084Z,98.89
2022-08-20T03:58:36.337Z,99.04
2022-08-20T04:01:07.308Z,98.94
2022-08-20T04:03:37.508Z,99.16
2022-08-20T04:06:06.156Z,99.11
2022-08-20T04:08:35.148Z,99.17
2022-08-20T04:11:03.686Z,99.14
2022-08-20T04:13:32.281Z,99.29
2022-08-20T04:16:13.358Z,99.56
2022-08-20T04:19:01.634Z,99.77
2022-08-20T04:21:33.312Z,99.93
2022-08-20T04:24:04.708Z,99.96
2022-08-20T04:26:35.597Z,99.98
2022-08-20T04:29:04.755Z,99.98
2022-08-20T04:31:34.089Z,99.81
2022-08-20T04:34:04.647Z,99.92
2022-08-20T04:36:33.135Z,99.98
2022-08-20T04:39:01.696Z,100.00
2022-08-20T04:41:30.133Z,100.00
2022-08-20T04:43:58.629Z,100.00
2022-08-20T04:46:29.132Z,99.93
2022-08-20T04:48:58.147Z,99.75
2022-08-20T04:51:27.189Z,99.74
2022-08-20T04:53:57.494Z,99.79
2022-08-20T04:56:29.488Z,99.86
2022-08-20T04:59:01.012Z,99.90
2022-08-20T05:01:29.592Z,99.65
2022-08-20T05:03:58.707Z,99.46
2022-08-20T05:06:31.478Z,99.31
2022-08-20T05:09:01.071Z,99.02
2022-08-20T05:11:36.099Z,99.18
2022-08-20T05:14:09.381Z,99.24
2022-08-20T05:16:39.605Z,99.20
2022-08-20T05:19:11.618Z,98.84
2022-08-20T05:21:40.648Z,98.41
2022-08-20T05:24:10.665Z,98.11
2022-08-20T05:26:39.280Z,97.70
2022-08-20T05:29:07.749Z,97.64
2022-08-20T05:31:36.284Z,97.56
2022-08-20T05:34:10.421Z,97.23
2022-08-20T05:36:41.827Z,96.31
2022-08-20T05:39:11.231Z,96.12
2022-08-20T05:41:40.456Z,96.50
2022-08-20T05:44:13.515Z,95.12
2022-08-20T05:46:45.067Z,94.07
2022-08-20T05:49:16.795Z,93.91
2022-08-20T05:51:45.312Z,92.92
2022-08-20T05:54:14.471Z,92.37
2022-08-20T05:56:43.324Z,91.46
2022-08-20T05:59:14.352Z,90.83
2022-08-20T06:01:43.420Z,90.34
2022-08-20T06:04:28.768Z,90.24
2022-08-20T06:07:02.477Z,90.50
2022-08-20T06:09:32.894Z,90.46
2022-08-20T06:12:06.278Z,89.37
2022-08-20T06:14:34.998Z,88.44
2022-08-20T06:17:13.517Z,87.97
2022-08-20T06:19:44.510Z,87.48
2022-08-20T06:22:18.717Z,86.66
2022-08-20T06:24:53.649Z,86.15
2022-08-20T06:27:22.660Z,85.64
2022-08-20T06:29:51.650Z,84.57
2022-08-20T06:32:31.802Z,82.89
2022-08-20T06:35:03.658Z,78.86
2022-08-20T06:37:36.654Z,77.44
2022-08-20T06:40:16.508Z,77.06
2022-08-20T06:42:48.468Z,75.64
2022-08-20T06:45:21.140Z,75.47
2022-08-20T06:47:49.668Z,75.74
2022-08-20T06:50:22.585Z,75.61
2022-08-20T06:52:52.898Z,77.01
2022-08-20T06:55:22.477Z,76.35
2022-08-20T06:58:02.458Z,74.49
2022-08-20T07:00:33.552Z,75.38
2022-08-20T07:03:02.852Z,76.21
2022-08-20T07:05:34.669Z,75.62
2022-08-20T07:08:04.484Z,75.67
2022-08-20T07:10:32.877Z,76.32
2022-08-20T07:13:01.416Z,76.47
2022-08-20T07:15:30.740Z,76.44
2022-08-20T07:18:02.019Z,76.33
2022-08-20T07:20:32.110Z,75.53
2022-08-20T07:23:01.333Z,74.97
2022-08-20T07:25:31.969Z,74.70
2022-08-20T07:28:05.566Z,73.35
2022-08-20T07:30:56.033Z,72.84
2022-08-20T07:33:28.752Z,72.76
2022-08-20T07:36:00.139Z,72.41
2022-08-20T07:38:30.831Z,72.88
2022-08-20T07:41:07.513Z,73.31
2022-08-20T07:43:36.637Z,72.19
2022-08-20T07:46:08.587Z,70.71
2022-08-20T07:48:40.187Z,68.74
2022-08-20T07:51:11.235Z,68.42
2022-08-20T07:53:41.207Z,68.11
2022-08-20T07:56:12.955Z,67.65
2022-08-20T07:58:50.454Z,66.10
2022-08-20T08:01:22.366Z,65.85
2022-08-20T08:03:50.950Z,66.20
2022-08-20T08:06:29.330Z,66.26
2022-08-20T08:09:04.648Z,66.36
2022-08-20T08:11:38.025Z,65.60
2022-08-20T08:14:10.121Z,65.38
2022-08-20T08:16:39.372Z,65.69
2022-08-20T08:19:12.208Z,67.57
2022-08-20T08:21:41.645Z,67.03
2022-08-20T08:24:14.368Z,66.91
2022-08-20T08:26:45.183Z,66.64
2022-08-20T08:29:13.690Z,66.13
2022-08-20T08:31:42.476Z,66.91
2022-08-20T08:34:11.863Z,64.63
2022-08-20T08:36:40.686Z,65.51
2022-08-20T08:39:09.119Z,65.04
2022-08-20T08:41:48.230Z,64.75
2022-08-20T08:44:23.618Z,64.26
2022-08-20T08:47:00.801Z,64.75
2022-08-20T08:49:38.069Z,63.57
2022-08-20T08:52:19.941Z,63.46
2022-08-20T08:54:53.379Z,63.04
2022-08-20T08:57:21.881Z,61.19
2022-08-20T09:00:03.924Z,61.56
2022-08-20T09:02:38.999Z,61.21
2022-08-20T09:05:21.286Z,58.14
2022-08-20T09:07:53.139Z,57.24
2022-08-20T09:10:23.559Z,57.54
2022-08-20T09:12:52.557Z,58.86
2022-08-20T09:15:21.556Z,58.24
2022-08-20T09:17:51.038Z,55.79
2022-08-20T09:20:19.657Z,55.71
2022-08-20T09:22:50.284Z,55.64
2022-08-20T09:25:21.143Z,55.50
2022-08-20T09:27:49.590Z,54.33
2022-08-20T09:30:19.565Z,55.19
2022-08-20T09:32:48.812Z,54.83
2022-08-20T09:35:18.205Z,54.94
2022-08-20T09:37:47.167Z,54.22
2022-08-20T09:40:21.066Z,55.02
2022-08-20T09:42:51.091Z,55.15
2022-08-20T09:45:19.882Z,56.85
2022-08-20T09:47:54.854Z,56.17
2022-08-20T09:50:27.828Z,53.99
2022-08-20T09:52:59.562Z,53.85
2022-08-20T09:55:38.464Z,53.18
2022-08-20T09:58:35.337Z,53.73
2022-08-20T10:01:13.727Z,53.99
2022-08-20T10:03:44.736Z,52.61
2022-08-20T10:06:14.943Z,51.58
2022-08-20T10:08:44.143Z,53.14
2022-08-20T10:11:12.660Z,54.03
2022-08-20T10:13:41.343Z,52.99
2022-08-20T10:16:09.777Z,51.92
2022-08-20T10:18:38.414Z,53.28
2022-08-20T10:21:13.218Z,53.36
2022-08-20T10:23:42.157Z,54.10
2022-08-20T10:26:12.608Z,54.04
2022-08-20T10:28:41.163Z,52.55
2022-08-20T10:31:12.398Z,49.17
2022-08-20T10:33:41.741Z,51.96
2022-08-20T10:36:13.364Z,51.12
2022-08-20T10:38:43.237Z,50.35
2022-08-20T10:41:11.930Z,52.37
2022-08-20T10:43:40.500Z,53.15
2022-08-20T10:46:09.332Z,53.28
2022-08-20T10:48:38.488Z,51.48
2022-08-20T10:51:07.034Z,50.42
2022-08-20T10:53:36.224Z,50.98
2022-08-20T10:56:04.769Z,52.36
2022-08-20T10:58:39.328Z,52.87
2022-08-20T11:01:09.040Z,51.91
2022-08-20T11:03:37.523Z,50.43
2022-08-20T11:06:06.239Z,49.65
2022-08-20T11:08:36.055Z,50.17
2022-08-20T11:11:06.168Z,52.01
2022-08-20T11:13:35.782Z,49.52
2022-08-20T11:16:05.168Z,49.84
2022-08-20T11:18:33.724Z,46.13
2022-08-20T11:21:02.329Z,47.62
2022-08-20T11:23:30.752Z,46.91
2022-08-20T11:25:59.552Z,45.77
2022-08-20T11:28:31.877Z,47.59
2022-08-20T11:31:01.976Z,48.04
2022-08-20T11:33:31.048Z,47.24
2022-08-20T11:35:59.408Z,43.89
2022-08-20T11:38:27.804Z,45.42
2022-08-20T11:40:56.434Z,44.60
2022-08-20T11:43:24.889Z,44.71
2022-08-20T11:45:56.429Z,45.16
2022-08-20T11:48:24.944Z,42.79
2022-08-20T11:50:53.504Z,42.98
2022-08-20T11:53:22.363Z,43.07
2022-08-20T11:55:51.139Z,43.37
2022-08-20T11:58:19.600Z,45.91
2022-08-20T12:00:48.220Z,46.95
2022-08-20T12:03:16.865Z,45.25
2022-08-20T12:05:47.138Z,41.76
2022-08-20T12:08:25.261Z,43.50
2022-08-20T12:11:00.457Z,43.47
2022-08-20T12:13:48.373Z,44.29
2022-08-20T12:16:19.432Z,40.72
2022-08-20T12:18:48.825Z,39.84
2022-08-20T12:21:17.828Z,41.76
2022-08-20T12:23:46.326Z,41.54
2022-08-20T12:26:16.869Z,42.45
2022-08-20T12:28:45.415Z,43.31
2022-08-20T12:31:13.874Z,44.35
2022-08-20T12:33:42.349Z,44.70
2022-08-20T12:36:11.298Z,44.91
2022-08-20T12:38:39.724Z,45.12
2022-08-20T12:41:08.538Z,45.90
2022-08-20T12:43:37.092Z,45.97
2022-08-20T12:46:05.636Z,46.32
2022-08-20T12:48:34.041Z,47.16
2022-08-20T12:51:02.530Z,47.70
2022-08-20T12:53:30.949Z,48.17
2022-08-20T12:56:00.070Z,48.36
2022-08-20T12:58:28.585Z,48.29
2022-08-20T13:00:56.969Z,49.31
2022-08-20T13:03:25.387Z,49.63
2022-08-20T13:05:55.327Z,50.48
2022-08-20T13:08:23.889Z,50.66
2022-08-20T13:10:52.319Z,52.03
2022-08-20T13:13:21.246Z,53.89
2022-08-20T13:15:51.315Z,53.89
2022-08-20T13:18:20.667Z,54.79
2022-08-20T13:20:50.022Z,56.17
2022-08-20T13:23:18.474Z,57.05
2022-08-20T13:25:46.876Z,57.32
2022-08-20T13:28:15.419Z,57.64
2022-08-20T13:30:43.884Z,58.17
2022-08-20T13:33:12.299Z,58.78
2022-08-20T13:35:41.021Z,58.96
2022-08-20T13:38:09.412Z,58.95
2022-08-20T13:40:37.880Z,59.89
2022-08-20T13:43:07.550Z,61.12
2022-08-20T13:45:41.305Z,62.81
2022-08-20T13:48:14.984Z,63.18
2022-08-20T13:50:47.366Z,62.92
2022-08-20T13:53:16.709Z,63.20
2022-08-20T13:55:46.849Z,63.54
2022-08-20T13:58:15.421Z,63.59
2022-08-20T14:00:48.444Z,64.33
2022-08-20T14:03:20.000Z,65.18
2022-08-20T14:05:54.416Z,62.73
2022-08-20T14:08:24.501Z,60.29
2022-08-20T14:10:53.027Z,60.39
2022-08-20T14:13:25.120Z,60.91
2022-08-20T14:15:54.517Z,61.47
2022-08-20T14:18:23.345Z,60.53
2022-08-20T14:20:51.819Z,60.59
2022-08-20T14:23:20.400Z,60.69
2022-08-20T14:25:50.345Z,61.55
2022-08-20T14:28:22.433Z,61.61
2022-08-20T14:30:53.025Z,61.68
2022-08-20T14:33:24.342Z,61.06
2022-08-20T14:35:53.412Z,60.25
2022-08-20T14:38:22.541Z,60.50
2022-08-20T14:40:54.284Z,60.86
2022-08-20T14:43:22.991Z,61.35
2022-08-20T14:45:53.752Z,62.15
2022-08-20T14:48:25.636Z,61.40
2022-08-20T14:50:57.275Z,60.93
2022-08-20T14:53:26.264Z,59.95
2022-08-20T14:55:54.849Z,59.36
2022-08-20T14:58:23.352Z,58.97
2022-08-20T15:00:53.612Z,59.63
2022-08-20T15:03:24.182Z,59.36
2022-08-20T15:05:52.586Z,59.77
2022-08-20T15:08:23.216Z,60.62
2022-08-20T15:10:58.431Z,61.15
2022-08-20T15:13:26.926Z,61.74
2022-08-20T15:15:55.617Z,61.72
2022-08-20T15:18:25.425Z,62.07
2022-08-20T15:20:53.969Z,61.87
2022-08-20T15:23:23.168Z,61.88
2022-08-20T15:25:51.693Z,62.29
2022-08-20T15:28:20.238Z,61.96
2022-08-20T15:30:48.683Z,62.21
2022-08-20T15:33:17.159Z,62.55
2022-08-20T15:35:45.729Z,63.27
2022-08-20T15:38:14.196Z,63.38
2022-08-20T15:40:42.687Z,63.44
2022-08-20T15:43:11.235Z,63.25
2022-08-20T15:45:39.671Z,63.61
2022-08-20T15:48:18.836Z,63.74
2022-08-20T15:51:25.984Z,64.03
2022-08-20T15:54:18.510Z,64.82
2022-08-20T15:57:05.551Z,64.75
2022-08-20T15:59:33.940Z,65.24
2022-08-20T16:02:26.002Z,65.57
2022-08-20T16:05:19.165Z,65.61
2022-08-20T16:08:15.600Z,66.19
2022-08-20T16:10:43.953Z,66.83
2022-08-20T16:13:47.808Z,67.35
2022-08-20T16:16:33.305Z,67.54
2022-08-20T16:19:02.376Z,68.02
2022-08-20T16:21:37.681Z,68.51
2022-08-20T16:24:13.794Z,68.69
2022-08-20T16:26:48.527Z,69.28
2022-08-20T16:29:24.496Z,69.63
2022-08-20T16:32:02.204Z,69.90
2022-08-20T16:34:40.675Z,70.38
2022-08-20T16:37:38.362Z,70.57
2022-08-20T16:40:10.013Z,70.34
2022-08-20T16:42:44.492Z,70.76
2022-08-20T16:45:20.595Z,71.23
2022-08-20T16:47:51.179Z,71.63
2022-08-20T16:50:26.975Z,71.86
2022-08-20T16:52:55.675Z,72.07
2022-08-20T16:55:25.433Z,72.22
2022-08-20T16:57:54.889Z,72.49
2022-08-20T17:00:44.844Z,72.80
2022-08-20T17:03:31.524Z,73.14
2022-08-20T17:06:30.819Z,73.41
2022-08-20T17:09:02.529Z,73.71
2022-08-20T17:12:14.090Z,73.96
2022-08-20T17:14:52.861Z,74.49
2022-08-20T17:17:28.184Z,74.70
2022-08-20T17:20:20.020Z,74.84
2022-08-20T17:22:53.894Z,75.04
2022-08-20T17:25:38.356Z,75.22
2022-08-20T17:28:19.795Z,75.52
2022-08-20T17:30:49.970Z,76.05
2022-08-20T17:33:36.664Z,76.21
2022-08-20T17:36:17.290Z,76.31
2022-08-20T17:39:00.901Z,76.43
2022-08-20T17:41:29.327Z,76.52
2022-08-20T17:44:06.942Z,76.52
2022-08-20T17:46:45.771Z,76.43
2022-08-20T17:49:34.828Z,76.39
2022-08-20T17:52:11.652Z,76.43
2022-08-20T17:54:44.601Z,76.42
2022-08-20T17:57:15.531Z,76.92
2022-08-20T18:00:00.896Z,77.08
2022-08-20T18:02:34.919Z,77.17
2022-08-20T18:05:10.307Z,77.31
2022-08-20T18:07:42.299Z,77.34
2022-08-20T18:10:18.568Z,77.55
2022-08-20T18:13:11.605Z,77.57
2022-08-20T18:15:58.419Z,77.79
2022-08-20T18:18:56.859Z,77.83
2022-08-20T18:21:44.765Z,78.33
2022-08-20T18:24:20.853Z,78.55
2022-08-20T18:26:54.253Z,78.72
2022-08-20T18:29:34.192Z,78.99
2022-08-20T18:32:07.486Z,79.32
2022-08-20T18:34:40.439Z,79.50
2022-08-20T18:37:14.709Z,79.86
2022-08-20T18:39:49.288Z,79.92
2022-08-20T18:42:17.539Z,80.20
2022-08-20T18:44:48.417Z,80.21
2022-08-20T18:47:25.635Z,80.03
2022-08-20T18:50:16.492Z,80.03
2022-08-20T18:53:08.509Z,80.09
2022-08-20T18:55:43.724Z,80.15
2022-08-20T18:58:31.104Z,80.35
2022-08-20T19:01:05.125Z,80.71
2022-08-20T19:03:36.359Z,80.75
2022-08-20T19:06:13.999Z,80.69
2022-08-20T19:08:52.734Z,80.82
2022-08-20T19:11:23.904Z,81.14
2022-08-20T19:14:15.453Z,81.32
2022-08-20T19:16:58.451Z,81.40
2022-08-20T19:19:32.234Z,81.84
2022-08-20T19:22:28.395Z,81.98
2022-08-20T19:25:00.046Z,82.38
2022-08-20T19:27:29.730Z,82.38
2022-08-20T19:30:02.708Z,82.49
2022-08-20T19:32:45.161Z,82.73
2022-08-20T19:35:17.872Z,82.96
2022-08-20T19:37:51.479Z,83.08
2022-08-20T19:40:28.730Z,83.26
2022-08-20T19:43:03.228Z,83.64
2022-08-20T19:45:41.117Z,83.97
2022-08-20T19:48:28.499Z,84.17
2022-08-20T19:51:07.038Z,84.47
2022-08-20T19:53:43.159Z,84.63
2022-08-20T19:56:21.806Z,84.84
2022-08-20T19:59:05.534Z,85.11
2022-08-20T20:01:34.921Z,85.43
2022-08-20T20:04:16.765Z,85.68
2022-08-20T20:06:49.262Z,86.07
2022-08-20T20:09:29.891Z,86.33
2022-08-20T20:12:04.092Z,86.64
2022-08-20T20:15:23.744Z,86.53
2022-08-20T20:17:54.009Z,86.79
2022-08-20T20:20:35.234Z,87.05
2022-08-20T20:23:20.678Z,87.34
2022-08-20T20:25:58.182Z,87.56
2022-08-20T20:28:41.939Z,87.96
2022-08-20T20:31:14.772Z,88.16
2022-08-20T20:33:44.454Z,88.35
2022-08-20T20:36:17.095Z,88.65
2022-08-20T20:38:58.144Z,88.98
2022-08-20T20:41:29.129Z,89.14
2022-08-20T20:44:20.605Z,89.42
2022-08-20T20:47:00.565Z,89.75
2022-08-20T20:49:35.966Z,89.91
2022-08-20T20:52:15.052Z,89.78
2022-08-20T20:54:46.288Z,90.16
2022-08-20T20:57:34.246Z,90.13
2022-08-20T21:00:14.561Z,90.16
2022-08-20T21:02:47.633Z,90.30
2022-08-20T21:05:18.041Z,90.43
2022-08-20T21:07:51.477Z,90.42
2022-08-20T21:10:23.357Z,90.76
2022-08-20T21:12:53.428Z,91.06
2022-08-20T21:15:24.458Z,91.27
2022-08-20T21:17:54.972Z,91.49
2022-08-20T21:20:23.405Z,91.71
2022-08-20T21:22:52.047Z,91.82
2022-08-20T21:25:20.741Z,91.88
2022-08-20T21:27:50.945Z,91.81
2022-08-20T21:30:21.422Z,92.20
2022-08-20T21:32:50.802Z,92.26
2022-08-20T21:35:21.186Z,92.36
2022-08-20T21:37:50.929Z,92.72
2022-08-20T21:40:21.695Z,92.86
2022-08-20T21:42:51.338Z,92.95
2022-08-20T21:45:20.279Z,92.85
2022-08-20T21:47:48.995Z,93.06
2022-08-20T21:50:20.380Z,92.94
2022-08-20T21:52:55.483Z,92.94
2022-08-20T21:55:39.789Z,93.25
2022-08-20T21:58:09.027Z,93.37
2022-08-20T22:00:53.765Z,93.12
2022-08-20T22:03:24.013Z,93.39
2022-08-20T22:05:53.133Z,93.44
2022-08-20T22:08:26.062Z,93.55
2022-08-20T22:10:59.503Z,93.60
2022-08-20T22:13:31.888Z,93.81
2022-08-20T22:16:07.283Z,94.02
2022-08-20T22:18:36.533Z,94.11
2022-08-20T22:21:07.872Z,93.93
2022-08-20T22:23:40.131Z,93.74
2022-08-20T22:26:09.103Z,93.76
2022-08-20T22:28:38.790Z,93.56
2022-08-20T22:31:07.881Z,93.74
2022-08-20T22:33:37.087Z,93.61
2022-08-20T22:36:07.180Z,93.52
2022-08-20T22:38:35.557Z,93.75
2022-08-20T22:41:09.430Z,93.85
2022-08-20T22:43:43.412Z,93.94
2022-08-20T22:46:28.831Z,93.89
2022-08-20T22:48:57.847Z,93.95
2022-08-20T22:51:34.624Z,94.20
2022-08-20T22:54:05.952Z,94.33
2022-08-20T22:56:34.484Z,94.20
2022-08-20T22:59:03.720Z,94.57
2022-08-20T23:01:32.450Z,94.69
2022-08-20T23:04:12.668Z,94.74
2022-08-20T23:06:42.224Z,94.85
2022-08-20T23:09:12.810Z,95.16
2022-08-20T23:11:41.691Z,95.25
2022-08-20T23:14:10.295Z,95.43
2022-08-20T23:16:44.845Z,95.61
2022-08-20T23:19:23.005Z,95.50
2022-08-20T23:21:51.916Z,95.89
2022-08-20T23:24:21.131Z,95.93
2022-08-20T23:26:53.050Z,96.09
2022-08-20T23:29:25.834Z,96.03
2022-08-20T23:31:56.133Z,96.31
2022-08-20T23:34:26.624Z,96.59
2022-08-20T23:36:56.773Z,96.84
2022-08-20T23:39:26.408Z,96.68
2022-08-20T23:41:55.428Z,96.68
2022-08-20T23:44:27.579Z,96.93
2022-08-20T23:46:59.638Z,97.01
2022-08-20T23:49:29.647Z,97.09
2022-08-20T23:52:00.818Z,97.23
2022-08-20T23:54:33.103Z,97.26
2022-08-20T23:57:08.090Z,97.25
2022-08-20T23:59:37.140Z,97.28
